Time;durP1;ratioP1;P1;durP2;ratioP2;P2;SDS_P1;SDS_P2;PMS_P1;PMS_P2;Temp;Humidity;BMP_temperature;BMP_pressure;BME280_temperature;BME280_humidity;BME280_pressure;Samples;Min_cycle;Max_cycle;Signal;HPM_P1;HPM_P2
2022/03/25 00:02:11;;;;;;;18.47;8.80;;;;;;;;;;4915378;29;21098;-87
2022/03/25 00:05:15;;;;;;;14.20;8.73;;;;;;;;;;4916340;29;20552;-86
2022/03/25 00:08:19;;;;;;;17.03;9.10;;;;;;;;;;4936359;29;20188;-86
2022/03/25 00:11:24;;;;;;;15.73;8.80;;;;;;;;;;4934255;29;21197;-87
2022/03/25 00:14:28;;;;;;;16.73;8.80;;;;;;;;;;4914056;29;20556;-87
2022/03/25 00:17:33;;;;;;;14.77;9.10;;;;;;;;;;4917446;29;20889;-87
2022/03/25 00:20:36;;;;;;;13.83;9.37;;;;;;;;;;4913809;29;20664;-86
2022/03/25 00:23:41;;;;;;;13.20;8.43;;;;;;;;;;4917734;29;20549;-86
2022/03/25 00:26:45;;;;;;;14.23;9.23;;;;;;;;;;4934589;29;20888;-87
2022/03/25 00:29:49;;;;;;;17.10;8.77;;;;;;;;;;4912470;29;20612;-86
2022/03/25 00:32:56;;;;;;;14.67;9.13;;;;;;;;;;4936500;29;20544;-86
2022/03/25 00:36:01;;;;;;;15.57;8.83;;;;;;;;;;4935218;29;20556;-86
2022/03/25 00:39:08;;;;;;;15.73;9.33;;;;;;;;;;4914039;29;20545;-86
2022/03/25 00:42:13;;;;;;;14.67;8.77;;;;;;;;;;4934379;29;21076;-86
2022/03/25 00:45:18;;;;;;;14.67;9.50;;;;;;;;;;4923390;29;20545;-86
2022/03/25 00:48:22;;;;;;;15.37;9.77;;;;;;;;;;4923441;29;21109;-86
2022/03/25 00:51:27;;;;;;;16.30;9.37;;;;;;;;;;4929208;29;21190;-86
2022/03/25 00:54:31;;;;;;;14.67;8.80;;;;;;;;;;4913580;29;20603;-86
2022/03/25 00:57:35;;;;;;;13.80;9.03;;;;;;;;;;4922549;29;20600;-86
2022/03/25 01:00:39;;;;;;;14.77;9.53;;;;;;;;;;4913186;29;20656;-86
2022/03/25 01:03:43;;;;;;;15.83;9.37;;;;;;;;;;4915200;29;20565;-86
2022/03/25 01:06:48;;;;;;;12.73;8.50;;;;;;;;;;4925117;29;21067;-86
2022/03/25 01:09:52;;;;;;;16.23;9.07;;;;;;;;;;4924141;29;20639;-86
2022/03/25 01:12:56;;;;;;;14.03;8.97;;;;;;;;;;4926771;29;20553;-86
2022/03/25 01:16:01;;;;;;;15.03;9.67;;;;;;;;;;4938841;29;20607;-86
2022/03/25 01:19:06;;;;;;;15.53;9.50;;;;;;;;;;4935304;29;20561;-86
2022/03/25 01:22:10;;;;;;;14.43;9.00;;;;;;;;;;4923057;29;20545;-86
2022/03/25 01:25:14;;;;;;;14.33;9.60;;;;;;;;;;4922726;29;20537;-87
2022/03/25 01:28:18;;;;;;;15.40;9.53;;;;;;;;;;4911549;29;20544;-87
2022/03/25 01:31:22;;;;;;;17.17;8.70;;;;;;;;;;4933060;29;20616;-86
2022/03/25 01:34:26;;;;;;;16.57;8.93;;;;;;;;;;4911297;29;20556;-86
2022/03/25 01:37:31;;;;;;;19.27;10.80;;;;;;;;;;4912846;29;20540;-87
2022/03/25 01:40:35;;;;;;;16.27;9.63;;;;;;;;;;4922667;29;20665;-86
2022/03/25 01:43:43;;;;;;;17.83;9.30;;;;;;;;;;4911600;29;20557;-86
2022/03/25 01:46:47;;;;;;;15.60;9.83;;;;;;;;;;4922580;29;20549;-86
2022/03/25 01:49:51;;;;;;;14.63;9.40;;;;;;;;;;4911132;29;20983;-86
2022/03/25 01:52:56;;;;;;;15.47;9.27;;;;;;;;;;4911490;29;20553;-86
2022/03/25 01:56:02;;;;;;;14.87;9.90;;;;;;;;;;4924272;29;20553;-86
2022/03/25 01:59:06;;;;;;;15.70;10.40;;;;;;;;;;4911664;29;21083;-86
2022/03/25 02:02:11;;;;;;;15.03;9.73;;;;;;;;;;4935375;29;20556;-86
2022/03/25 02:05:17;;;;;;;15.57;9.73;;;;;;;;;;4932970;29;20592;-86
2022/03/25 02:08:22;;;;;;;16.60;10.60;;;;;;;;;;4926137;29;20616;-86
2022/03/25 02:11:28;;;;;;;15.40;9.93;;;;;;;;;;4911198;29;20639;-86
2022/03/25 02:14:32;;;;;;;17.13;9.60;;;;;;;;;;4911012;29;20548;-86
2022/03/25 02:17:37;;;;;;;14.97;9.43;;;;;;;;;;4933778;29;20541;-86
2022/03/25 02:20:43;;;;;;;16.27;10.00;;;;;;;;;;4946088;28;21023;-86
2022/03/25 02:23:49;;;;;;;18.50;9.63;;;;;;;;;;4923152;29;20553;-86
2022/03/25 02:26:53;;;;;;;17.90;10.03;;;;;;;;;;4922582;29;20549;-86
2022/03/25 02:29:58;;;;;;;16.07;9.50;;;;;;;;;;4923949;29;20635;-86
2022/03/25 02:33:04;;;;;;;18.60;10.23;;;;;;;;;;4927664;29;20548;-86
2022/03/25 02:36:08;;;;;;;14.73;9.00;;;;;;;;;;4935887;29;20555;-86
2022/03/25 02:39:15;;;;;;;16.90;10.03;;;;;;;;;;4935765;29;20951;-86
2022/03/25 02:42:20;;;;;;;16.63;9.90;;;;;;;;;;4924362;29;20658;-86
2022/03/25 02:45:25;;;;;;;17.67;10.03;;;;;;;;;;4927939;29;20549;-86
2022/03/25 02:48:29;;;;;;;16.60;11.17;;;;;;;;;;4918169;29;20569;-86
2022/03/25 02:51:34;;;;;;;22.00;10.50;;;;;;;;;;4924732;29;21218;-86
2022/03/25 02:54:38;;;;;;;16.27;10.20;;;;;;;;;;4925572;29;21085;-86
2022/03/25 02:57:42;;;;;;;18.47;10.17;;;;;;;;;;4937503;29;20567;-86
2022/03/25 03:00:47;;;;;;;18.00;10.03;;;;;;;;;;4938162;29;20662;-86
2022/03/25 03:03:51;;;;;;;15.73;9.50;;;;;;;;;;4913121;29;20568;-86
2022/03/25 03:06:55;;;;;;;14.40;9.30;;;;;;;;;;4934650;29;20600;-86
2022/03/25 03:09:59;;;;;;;15.47;9.67;;;;;;;;;;4913126;29;20984;-86
2022/03/25 03:13:04;;;;;;;14.20;9.50;;;;;;;;;;4934634;29;20560;-86
2022/03/25 03:16:09;;;;;;;15.00;9.60;;;;;;;;;;4924052;29;20545;-86
2022/03/25 03:19:12;;;;;;;15.77;9.57;;;;;;;;;;4923995;29;20540;-86
2022/03/25 03:22:20;;;;;;;15.50;10.77;;;;;;;;;;4924004;29;20600;-86
2022/03/25 03:25:26;;;;;;;16.10;10.50;;;;;;;;;;4912860;29;20572;-86
2022/03/25 03:28:30;;;;;;;14.57;9.40;;;;;;;;;;4913606;29;20555;-85
2022/03/25 03:31:34;;;;;;;18.37;10.37;;;;;;;;;;4913283;29;20620;-86
2022/03/25 03:34:38;;;;;;;16.53;9.97;;;;;;;;;;4923581;29;20565;-86
2022/03/25 03:37:44;;;;;;;17.03;10.87;;;;;;;;;;4923954;29;20549;-86
2022/03/25 03:40:48;;;;;;;13.90;9.53;;;;;;;;;;4911980;29;20667;-86
2022/03/25 03:43:52;;;;;;;16.33;10.20;;;;;;;;;;4923751;29;20549;-86
2022/03/25 03:46:57;;;;;;;15.17;10.20;;;;;;;;;;4923649;29;20555;-86
2022/03/25 03:50:03;;;;;;;16.40;10.77;;;;;;;;;;4934379;29;20974;-86
2022/03/25 03:53:07;;;;;;;16.37;10.73;;;;;;;;;;4945378;29;20548;-86
2022/03/25 03:56:11;;;;;;;16.97;11.27;;;;;;;;;;4944925;29;20626;-86
2022/03/25 03:59:18;;;;;;;15.70;10.73;;;;;;;;;;4934175;29;20548;-86
2022/03/25 04:02:23;;;;;;;18.63;10.20;;;;;;;;;;4934172;29;20659;-86
2022/03/25 04:05:28;;;;;;;20.23;10.83;;;;;;;;;;4980082;28;20548;-86
2022/03/25 04:08:32;;;;;;;18.27;10.77;;;;;;;;;;4912379;29;20556;-86
2022/03/25 04:11:36;;;;;;;19.50;11.80;;;;;;;;;;4923273;29;20647;-86
2022/03/25 04:14:40;;;;;;;14.87;10.20;;;;;;;;;;4934354;29;20618;-86
2022/03/25 04:17:45;;;;;;;17.57;10.80;;;;;;;;;;4934026;29;20607;-86
2022/03/25 04:20:50;;;;;;;21.13;11.70;;;;;;;;;;4915860;29;21027;-86
2022/03/25 04:23:54;;;;;;;19.67;11.97;;;;;;;;;;4938656;29;20631;-86
2022/03/25 04:26:58;;;;;;;21.53;12.40;;;;;;;;;;4933779;29;20607;-86
2022/03/25 04:30:02;;;;;;;20.90;12.23;;;;;;;;;;4934359;29;20643;-86
2022/03/25 04:33:07;;;;;;;18.07;11.87;;;;;;;;;;4934060;29;20545;-86
2022/03/25 04:36:11;;;;;;;19.57;11.80;;;;;;;;;;4924086;29;20615;-86
2022/03/25 04:39:15;;;;;;;20.77;11.50;;;;;;;;;;4927869;29;21107;-86
2022/03/25 04:42:19;;;;;;;26.10;11.87;;;;;;;;;;4923469;29;20620;-86
2022/03/25 04:45:25;;;;;;;19.53;11.07;;;;;;;;;;4945073;29;20549;-85
2022/03/25 04:48:29;;;;;;;19.13;11.40;;;;;;;;;;4933879;29;20927;-86
2022/03/25 04:51:34;;;;;;;18.33;11.87;;;;;;;;;;4945507;28;21220;-86
2022/03/25 04:54:38;;;;;;;15.83;11.00;;;;;;;;;;4923031;29;20614;-86
2022/03/25 04:57:42;;;;;;;20.90;11.47;;;;;;;;;;4944907;29;20622;-86
2022/03/25 05:00:46;;;;;;;18.03;11.30;;;;;;;;;;4923012;29;20635;-86
2022/03/25 05:03:50;;;;;;;16.93;11.33;;;;;;;;;;4922791;29;20570;-86
2022/03/25 05:06:54;;;;;;;17.60;11.07;;;;;;;;;;4933628;29;20559;-86
2022/03/25 05:10:00;;;;;;;17.67;11.50;;;;;;;;;;4922895;29;20654;-86
2022/03/25 05:13:04;;;;;;;20.50;11.47;;;;;;;;;;4933612;29;20573;-86
2022/03/25 05:16:08;;;;;;;19.53;11.40;;;;;;;;;;4933074;29;20612;-86
2022/03/25 05:19:12;;;;;;;20.50;12.07;;;;;;;;;;4933177;29;20563;-86
2022/03/25 05:22:16;;;;;;;18.93;11.37;;;;;;;;;;4912140;29;20603;-86
2022/03/25 05:25:21;;;;;;;18.47;11.17;;;;;;;;;;4936410;29;20617;-86
2022/03/25 05:28:25;;;;;;;18.03;11.80;;;;;;;;;;4935686;29;20620;-86
2022/03/25 05:31:30;;;;;;;19.63;11.80;;;;;;;;;;4922407;29;20632;-87
2022/03/25 05:34:34;;;;;;;39.63;24.00;;;;;;;;;;4944603;29;20550;-86
2022/03/25 05:37:39;;;;;;;41.80;26.37;;;;;;;;;;4922467;29;20556;-86
2022/03/25 05:40:43;;;;;;;28.73;18.30;;;;;;;;;;4922101;29;20631;-86
2022/03/25 05:43:49;;;;;;;22.80;14.57;;;;;;;;;;4934928;29;20546;-86
2022/03/25 05:46:55;;;;;;;23.93;14.13;;;;;;;;;;4922053;29;21115;-86
2022/03/25 05:50:00;;;;;;;20.73;13.20;;;;;;;;;;4926759;29;21224;-86
2022/03/25 05:53:05;;;;;;;21.37;13.27;;;;;;;;;;4932465;29;20612;-86
2022/03/25 05:56:10;;;;;;;53.30;27.00;;;;;;;;;;4932831;29;20552;-86
2022/03/25 05:59:15;;;;;;;69.53;36.37;;;;;;;;;;4923600;29;20579;-86
2022/03/25 06:02:19;;;;;;;40.57;21.50;;;;;;;;;;4911411;29;20662;-87
2022/03/25 06:05:24;;;;;;;35.23;15.10;;;;;;;;;;4938504;29;20565;-86
2022/03/25 06:08:28;;;;;;;24.23;14.53;;;;;;;;;;4925718;29;20544;-86
2022/03/25 06:11:32;;;;;;;21.80;12.73;;;;;;;;;;4937224;29;21224;-86
2022/03/25 06:14:37;;;;;;;20.00;13.37;;;;;;;;;;4936032;29;20603;-86
2022/03/25 06:17:44;;;;;;;17.07;12.03;;;;;;;;;;4924981;29;20912;-87
2022/03/25 06:20:48;;;;;;;21.83;13.20;;;;;;;;;;4930584;29;20640;-87
2022/03/25 06:23:52;;;;;;;21.53;13.23;;;;;;;;;;4930167;29;20541;-86
2022/03/25 06:26:56;;;;;;;21.73;12.73;;;;;;;;;;4936674;29;20623;-86
2022/03/25 06:30:01;;;;;;;22.13;12.70;;;;;;;;;;4971065;28;20630;-86
2022/03/25 06:33:09;;;;;;;22.43;13.47;;;;;;;;;;4936204;29;21110;-86
2022/03/25 06:36:13;;;;;;;33.33;14.23;;;;;;;;;;4935613;29;20559;-86
2022/03/25 06:39:17;;;;;;;36.80;13.73;;;;;;;;;;4913989;29;20559;-86
2022/03/25 06:42:21;;;;;;;21.93;13.47;;;;;;;;;;4935671;29;20603;-87
2022/03/25 06:45:26;;;;;;;56.93;25.07;;;;;;;;;;4914001;29;20560;-87
2022/03/25 06:48:31;;;;;;;65.80;25.17;;;;;;;;;;4924234;29;20552;-86
2022/03/25 06:51:36;;;;;;;81.23;30.40;;;;;;;;;;4913473;29;21089;-87
2022/03/25 06:54:40;;;;;;;107.57;39.60;;;;;;;;;;4914132;29;20552;-87
2022/03/25 06:57:44;;;;;;;98.87;35.03;;;;;;;;;;4934849;29;20575;-87
2022/03/25 07:00:48;;;;;;;90.20;34.13;;;;;;;;;;4912841;29;20634;-87
2022/03/25 07:03:53;;;;;;;68.40;29.60;;;;;;;;;;4913001;29;20188;-87
2022/03/25 07:06:58;;;;;;;77.87;29.27;;;;;;;;;;4935049;29;20185;-86
2022/03/25 07:10:03;;;;;;;36.73;20.27;;;;;;;;;;4949679;23;20239;-86
2022/03/25 07:13:08;;;;;;;24.83;15.67;;;;;;;;;;4932480;29;20261;-84
2022/03/25 07:16:12;;;;;;;22.60;15.17;;;;;;;;;;4953936;28;20191;-84
2022/03/25 07:19:17;;;;;;;28.70;16.20;;;;;;;;;;4953562;29;20576;-85
2022/03/25 07:22:21;;;;;;;25.53;15.27;;;;;;;;;;4912680;29;20215;-85
2022/03/25 07:25:25;;;;;;;26.43;14.90;;;;;;;;;;4945380;29;20195;-85
2022/03/25 07:28:29;;;;;;;29.07;15.03;;;;;;;;;;4945230;29;20547;-85
2022/03/25 07:31:33;;;;;;;53.63;18.03;;;;;;;;;;4923409;29;20223;-84
2022/03/25 07:34:38;;;;;;;30.23;14.53;;;;;;;;;;4923048;29;20207;-84
2022/03/25 07:37:43;;;;;;;23.87;14.87;;;;;;;;;;4913017;29;20207;-84
2022/03/25 07:40:47;;;;;;;26.50;15.70;;;;;;;;;;4912290;29;20589;-84
2022/03/25 07:43:54;;;;;;;31.83;16.17;;;;;;;;;;4933867;29;20222;-84
2022/03/25 07:46:58;;;;;;;28.30;15.83;;;;;;;;;;4912575;29;20547;-84
2022/03/25 07:50:02;;;;;;;23.97;15.00;;;;;;;;;;4922851;29;20188;-84
2022/03/25 07:53:06;;;;;;;25.47;15.73;;;;;;;;;;4934276;29;20641;-84
2022/03/25 07:56:11;;;;;;;22.80;15.23;;;;;;;;;;4923153;29;20259;-84
2022/03/25 07:59:15;;;;;;;22.77;15.63;;;;;;;;;;4912235;29;20547;-84
2022/03/25 08:02:19;;;;;;;24.63;18.43;;;;;;;;;;4912035;29;20685;-84
2022/03/25 08:05:23;;;;;;;28.80;16.67;;;;;;;;;;4923235;29;20654;-84
2022/03/25 08:08:27;;;;;;;25.07;16.10;;;;;;;;;;4922953;29;20195;-84
2022/03/25 08:11:32;;;;;;;29.63;16.93;;;;;;;;;;4911622;29;20235;-84
2022/03/25 08:14:36;;;;;;;25.83;17.00;;;;;;;;;;4991062;28;20191;-84
2022/03/25 08:17:45;;;;;;;25.30;16.87;;;;;;;;;;4933684;29;20653;-84
2022/03/25 08:20:48;;;;;;;26.30;17.00;;;;;;;;;;4922503;29;20227;-84
2022/03/25 08:30:39;;;;;;;24.40;16.53;;;;;;;;;;4933573;29;20709;-84
2022/03/25 08:33:44;;;;;;;26.23;16.63;;;;;;;;;;4911803;29;20191;-84
2022/03/25 08:36:49;;;;;;;27.67;16.53;;;;;;;;;;4933673;29;20187;-84
2022/03/25 08:39:53;;;;;;;29.00;17.33;;;;;;;;;;4911244;29;20709;-84
2022/03/25 08:42:57;;;;;;;27.70;17.17;;;;;;;;;;4932977;29;20702;-84
2022/03/25 08:46:01;;;;;;;23.00;16.60;;;;;;;;;;4933592;29;20215;-84
2022/03/25 08:49:06;;;;;;;25.27;17.13;;;;;;;;;;4922213;29;20187;-84
2022/03/25 08:52:10;;;;;;;27.47;18.67;;;;;;;;;;4932799;29;20587;-84
2022/03/25 08:55:16;;;;;;;26.97;17.67;;;;;;;;;;4932878;29;20206;-84
2022/03/25 08:58:20;;;;;;;25.60;18.67;;;;;;;;;;4911112;29;20207;-84
2022/03/25 09:01:24;;;;;;;33.03;17.33;;;;;;;;;;4922038;29;20235;-84
2022/03/25 09:04:30;;;;;;;23.83;17.93;;;;;;;;;;4932834;29;20535;-84
2022/03/25 09:07:34;;;;;;;21.07;16.57;;;;;;;;;;4912748;29;20196;-85
2022/03/25 09:10:38;;;;;;;26.87;16.57;;;;;;;;;;4921603;29;20239;-85
2022/03/25 09:13:42;;;;;;;24.43;17.93;;;;;;;;;;4910961;29;20210;-85
2022/03/25 09:16:46;;;;;;;23.13;17.53;;;;;;;;;;4933080;29;20187;-85
2022/03/25 09:19:51;;;;;;;24.43;17.53;;;;;;;;;;4910818;29;20195;-85
2022/03/25 09:22:55;;;;;;;25.50;17.73;;;;;;;;;;4932706;29;20215;-85
2022/03/25 09:26:00;;;;;;;25.63;16.57;;;;;;;;;;4910906;29;20195;-85
2022/03/25 09:29:05;;;;;;;35.93;18.07;;;;;;;;;;4932919;29;20189;-85
2022/03/25 09:32:08;;;;;;;25.83;18.10;;;;;;;;;;4921676;29;20222;-84
2022/03/25 09:35:14;;;;;;;30.07;17.57;;;;;;;;;;4932903;29;20188;-84
2022/03/25 09:38:19;;;;;;;23.53;18.30;;;;;;;;;;4922056;29;20192;-84
2022/03/25 09:41:24;;;;;;;23.30;18.07;;;;;;;;;;4924980;29;20231;-84
2022/03/25 09:44:28;;;;;;;28.93;17.50;;;;;;;;;;4947149;29;20686;-85
2022/03/25 09:47:32;;;;;;;27.37;18.80;;;;;;;;;;4936168;29;20203;-85
2022/03/25 09:50:39;;;;;;;28.23;17.80;;;;;;;;;;4925353;29;20227;-85
2022/03/25 09:53:46;;;;;;;23.93;17.37;;;;;;;;;;4924910;29;20191;-85
2022/03/25 09:56:50;;;;;;;25.03;17.00;;;;;;;;;;4936009;29;20211;-85
2022/03/25 09:59:55;;;;;;;24.10;18.40;;;;;;;;;;4914005;29;20543;-85
2022/03/25 10:02:59;;;;;;;22.50;17.00;;;;;;;;;;4935775;29;20208;-85
2022/03/25 10:06:10;;;;;;;54.00;19.67;;;;;;;;;;4935735;29;20562;-85
2022/03/25 10:09:21;;;;;;;22.77;17.83;;;;;;;;;;4935472;29;20196;-85
2022/03/25 10:12:27;;;;;;;25.10;17.17;;;;;;;;;;4924513;29;20575;-85
2022/03/25 10:15:33;;;;;;;21.33;16.80;;;;;;;;;;4924786;29;20199;-85
2022/03/25 10:18:38;;;;;;;26.87;17.47;;;;;;;;;;4924646;29;20191;-84
2022/03/25 10:22:02;;;;;;;23.97;17.47;;;;;;;;;;4936023;29;20223;-84
2022/03/25 10:25:09;;;;;;;22.73;17.70;;;;;;;;;;4925203;29;20183;-84
2022/03/25 10:28:18;;;;;;;27.90;17.10;;;;;;;;;;4913772;29;20559;-84
2022/03/25 10:31:22;;;;;;;24.40;17.43;;;;;;;;;;4935947;29;20235;-84
2022/03/25 10:34:26;;;;;;;23.10;17.57;;;;;;;;;;4935056;29;20563;-84
2022/03/25 10:37:30;;;;;;;25.03;19.10;;;;;;;;;;4959132;28;20196;-84
2022/03/25 10:40:48;;;;;;;21.73;17.23;;;;;;;;;;4936899;29;20227;-85
2022/03/25 10:43:59;;;;;;;25.90;17.97;;;;;;;;;;4914319;29;20219;-85
2022/03/25 10:47:20;;;;;;;24.47;18.17;;;;;;;;;;4935550;29;20267;-85
2022/03/25 10:50:24;;;;;;;24.73;18.43;;;;;;;;;;4935824;29;20299;-85
2022/03/25 10:53:32;;;;;;;29.50;20.07;;;;;;;;;;4925133;29;20658;-85
2022/03/25 10:56:47;;;;;;;30.17;19.77;;;;;;;;;;4924495;29;20287;-85
2022/03/25 10:59:58;;;;;;;27.27;19.80;;;;;;;;;;4913164;29;20564;-85
2022/03/25 11:03:03;;;;;;;44.37;20.40;;;;;;;;;;4913859;29;20676;-85
2022/03/25 11:06:08;;;;;;;24.83;18.90;;;;;;;;;;4935221;29;20211;-85
2022/03/25 11:09:14;;;;;;;24.33;17.80;;;;;;;;;;4935104;29;20197;-85
2022/03/25 11:12:19;;;;;;;27.67;19.67;;;;;;;;;;4935027;29;20176;-85
2022/03/25 11:15:23;;;;;;;25.33;19.77;;;;;;;;;;4935123;29;20192;-85
2022/03/25 11:18:28;;;;;;;27.30;20.70;;;;;;;;;;4924375;29;20184;-86
2022/03/25 11:21:33;;;;;;;27.80;19.90;;;;;;;;;;4913357;29;20232;-85
2022/03/25 11:24:46;;;;;;;24.10;19.40;;;;;;;;;;4913285;29;20215;-85
2022/03/25 11:28:16;;;;;;;25.00;19.47;;;;;;;;;;4937487;29;20195;-85
2022/03/25 11:31:20;;;;;;;27.27;20.47;;;;;;;;;;4941160;29;20219;-85
2022/03/25 11:34:26;;;;;;;27.83;19.10;;;;;;;;;;4964287;28;20184;-86
2022/03/25 11:37:32;;;;;;;29.33;21.90;;;;;;;;;;4929976;29;20183;-84
2022/03/25 11:40:44;;;;;;;30.20;20.57;;;;;;;;;;4929552;29;20223;-85
2022/03/25 11:44:14;;;;;;;33.23;19.67;;;;;;;;;;4927626;29;20211;-85
2022/03/25 11:47:18;;;;;;;31.77;20.07;;;;;;;;;;4925695;29;20195;-85
2022/03/25 11:50:30;;;;;;;28.43;18.80;;;;;;;;;;4934936;29;20227;-85
2022/03/25 11:53:34;;;;;;;30.80;18.33;;;;;;;;;;4935246;29;20639;-85
2022/03/25 11:56:47;;;;;;;23.10;17.77;;;;;;;;;;4923414;29;20215;-85
2022/03/25 11:59:53;;;;;;;28.43;19.23;;;;;;;;;;4912835;29;20196;-84
2022/03/25 12:03:03;;;;;;;26.87;19.00;;;;;;;;;;4922353;29;20207;-85
2022/03/25 12:06:08;;;;;;;25.07;19.03;;;;;;;;;;4923747;29;20204;-84
2022/03/25 12:09:18;;;;;;;25.20;18.40;;;;;;;;;;4934400;29;20187;-84
2022/03/25 12:12:54;;;;;;;28.20;20.33;;;;;;;;;;4923708;29;20183;-84
2022/03/25 12:15:58;;;;;;;24.47;18.30;;;;;;;;;;4912767;29;20188;-85
2022/03/25 12:19:03;;;;;;;27.87;18.70;;;;;;;;;;4934199;28;20230;-86
2022/03/25 12:22:20;;;;;;;34.60;18.47;;;;;;;;;;4912520;29;20226;-86
2022/03/25 12:25:31;;;;;;;25.57;18.47;;;;;;;;;;5113094;27;20838;-85
2022/03/25 12:28:35;;;;;;;23.17;18.17;;;;;;;;;;5099545;28;20201;-85
2022/03/25 12:31:40;;;;;;;27.60;17.93;;;;;;;;;;5099527;28;20222;-86
2022/03/25 12:35:01;;;;;;;33.73;18.60;;;;;;;;;;5087764;28;20179;-85
2022/03/25 12:38:16;;;;;;;25.80;17.87;;;;;;;;;;5061502;22;20628;-87
2022/03/25 12:41:27;;;;;;;26.00;17.53;;;;;;;;;;5007748;28;20181;-87
2022/03/25 12:44:32;;;;;;;23.70;17.97;;;;;;;;;;4996532;28;20220;-86
2022/03/25 12:47:43;;;;;;;25.87;17.07;;;;;;;;;;5021663;28;20224;-86
2022/03/25 12:50:51;;;;;;;25.97;17.40;;;;;;;;;;5027258;28;20180;-86
2022/03/25 12:53:56;;;;;;;21.20;16.10;;;;;;;;;;5027743;28;20168;-86
2022/03/25 12:57:05;;;;;;;22.47;16.70;;;;;;;;;;5037893;28;20216;-86
2022/03/25 13:00:11;;;;;;;24.60;16.57;;;;;;;;;;5038313;28;20187;-86
2022/03/25 13:03:17;;;;;;;19.90;15.80;;;;;;;;;;5038249;28;20186;-86
2022/03/25 13:06:21;;;;;;;24.43;16.97;;;;;;;;;;5037931;28;20216;-86
2022/03/25 13:09:25;;;;;;;22.30;16.93;;;;;;;;;;5038543;28;20666;-87
2022/03/25 13:12:35;;;;;;;20.23;15.27;;;;;;;;;;5049380;28;20174;-86
2022/03/25 13:15:45;;;;;;;18.03;14.20;;;;;;;;;;5026924;28;20175;-86
2022/03/25 13:18:49;;;;;;;17.47;13.77;;;;;;;;;;5026770;28;20182;-87
2022/03/25 13:21:53;;;;;;;20.90;15.70;;;;;;;;;;5027180;28;20199;-86
2022/03/25 13:24:59;;;;;;;24.93;16.30;;;;;;;;;;5026442;28;20206;-87
2022/03/25 13:28:08;;;;;;;22.07;16.90;;;;;;;;;;5037434;28;20218;-87
2022/03/25 13:31:12;;;;;;;23.07;16.03;;;;;;;;;;5038141;28;20186;-86
2022/03/25 13:34:16;;;;;;;24.50;17.43;;;;;;;;;;5038264;28;20504;-86
2022/03/25 13:37:24;;;;;;;22.67;15.40;;;;;;;;;;5035804;28;20228;-86
2022/03/25 13:40:33;;;;;;;25.10;16.07;;;;;;;;;;5024658;28;20185;-86
2022/03/25 13:43:43;;;;;;;18.37;15.17;;;;;;;;;;5013188;28;20181;-86
2022/03/25 13:46:48;;;;;;;18.90;14.27;;;;;;;;;;5002419;28;20213;-86
2022/03/25 13:50:13;;;;;;;18.20;14.97;;;;;;;;;;5001838;28;20185;-86
2022/03/25 13:53:35;;;;;;;23.27;16.60;;;;;;;;;;5012845;28;20214;-87
2022/03/25 13:56:51;;;;;;;20.10;15.60;;;;;;;;;;5023876;28;20715;-87
2022/03/25 14:00:07;;;;;;;20.57;14.97;;;;;;;;;;5025401;28;20185;-86
2022/03/25 14:03:17;;;;;;;24.37;15.47;;;;;;;;;;5035518;28;20181;-86
2022/03/25 14:06:22;;;;;;;18.00;14.53;;;;;;;;;;5012421;28;20209;-86
2022/03/25 14:09:35;;;;;;;21.07;13.87;;;;;;;;;;5023946;28;20200;-86
2022/03/25 14:12:40;;;;;;;22.90;14.50;;;;;;;;;;5012688;28;20181;-86
2022/03/25 14:15:45;;;;;;;20.60;14.53;;;;;;;;;;5023717;28;20196;-86
2022/03/25 14:18:51;;;;;;;22.33;14.60;;;;;;;;;;5035508;28;20204;-86
2022/03/25 14:21:55;;;;;;;47.27;15.63;;;;;;;;;;5035271;28;20188;-86
2022/03/25 14:24:59;;;;;;;18.53;14.63;;;;;;;;;;5014667;28;20212;-86
2022/03/25 14:28:10;;;;;;;21.90;14.20;;;;;;;;;;5025250;28;20216;-86
2022/03/25 14:31:13;;;;;;;28.80;14.77;;;;;;;;;;5013985;28;20185;-86
2022/03/25 14:34:19;;;;;;;18.80;14.50;;;;;;;;;;5024880;28;20548;-86
2022/03/25 14:37:27;;;;;;;18.97;13.17;;;;;;;;;;5024312;28;20220;-86
2022/03/25 14:40:31;;;;;;;19.73;13.77;;;;;;;;;;5024171;28;20201;-87
2022/03/25 14:43:35;;;;;;;16.80;13.17;;;;;;;;;;5024762;28;20184;-86
2022/03/25 14:46:47;;;;;;;23.93;13.67;;;;;;;;;;5012138;28;20204;-87
2022/03/25 14:49:52;;;;;;;19.97;14.40;;;;;;;;;;5024053;28;20201;-86
2022/03/25 14:52:56;;;;;;;20.23;14.63;;;;;;;;;;5035226;28;20185;-86
2022/03/25 14:56:00;;;;;;;18.87;14.17;;;;;;;;;;5022859;28;20177;-86
2022/03/25 14:59:05;;;;;;;20.10;14.17;;;;;;;;;;5034287;28;20185;-86
2022/03/25 15:02:10;;;;;;;18.80;12.73;;;;;;;;;;5023065;28;20177;-86
2022/03/25 15:05:14;;;;;;;17.90;14.20;;;;;;;;;;5022862;28;20232;-86
2022/03/25 15:08:19;;;;;;;19.20;13.53;;;;;;;;;;5034194;28;20513;-86
2022/03/25 15:11:23;;;;;;;18.23;13.57;;;;;;;;;;5022625;28;20180;-86
2022/03/25 15:14:28;;;;;;;24.33;14.00;;;;;;;;;;5022462;28;20182;-86
2022/03/25 15:17:32;;;;;;;20.80;14.63;;;;;;;;;;5011277;28;20223;-86
2022/03/25 15:20:36;;;;;;;21.40;15.83;;;;;;;;;;5011237;28;20184;-86
2022/03/25 15:23:40;;;;;;;24.07;17.40;;;;;;;;;;5011175;28;20187;-86
2022/03/25 15:26:44;;;;;;;23.57;15.97;;;;;;;;;;5011012;28;20220;-86
2022/03/25 15:36:36;;;;;;;24.93;15.23;;;;;;;;;;5021819;28;20243;-86
2022/03/25 15:39:59;;;;;;;22.07;16.10;;;;;;;;;;5022234;28;20185;-86
2022/03/25 15:43:03;;;;;;;20.93;16.00;;;;;;;;;;5022154;28;20185;-86
2022/03/25 15:46:12;;;;;;;23.43;17.00;;;;;;;;;;5022006;28;20212;-86
2022/03/25 15:49:15;;;;;;;31.13;17.83;;;;;;;;;;5010554;28;20188;-86
2022/03/25 15:52:22;;;;;;;28.33;17.50;;;;;;;;;;5010861;28;20184;-86
2022/03/25 15:55:27;;;;;;;37.57;26.07;;;;;;;;;;5022009;28;20192;-86
2022/03/25 15:58:31;;;;;;;32.17;22.20;;;;;;;;;;5010131;28;20579;-86
2022/03/25 16:01:35;;;;;;;25.70;16.73;;;;;;;;;;5013359;28;20202;-86
2022/03/25 16:04:39;;;;;;;23.93;15.90;;;;;;;;;;5010817;28;20227;-86
2022/03/25 16:07:44;;;;;;;24.70;16.33;;;;;;;;;;5010771;28;20228;-86
2022/03/25 16:10:50;;;;;;;27.33;16.47;;;;;;;;;;5022121;28;20195;-86
2022/03/25 16:13:56;;;;;;;36.40;16.57;;;;;;;;;;5022339;28;20189;-86
2022/03/25 16:17:07;;;;;;;20.20;15.07;;;;;;;;;;5011712;28;20223;-86
2022/03/25 16:20:12;;;;;;;25.80;15.73;;;;;;;;;;5011816;28;20196;-86
2022/03/25 16:23:16;;;;;;;28.77;16.03;;;;;;;;;;5035626;28;20187;-87
2022/03/25 16:26:22;;;;;;;32.63;16.73;;;;;;;;;;5023711;28;20235;-86
2022/03/25 16:29:26;;;;;;;27.23;15.40;;;;;;;;;;5011751;28;20180;-86
2022/03/25 16:32:33;;;;;;;19.87;15.23;;;;;;;;;;5021793;28;20184;-87
2022/03/25 16:35:42;;;;;;;26.73;14.80;;;;;;;;;;5026108;28;20549;-87
2022/03/25 16:38:46;;;;;;;22.57;15.67;;;;;;;;;;5024706;28;20644;-88
2022/03/25 16:41:50;;;;;;;23.20;15.17;;;;;;;;;;5011741;28;20184;-87
2022/03/25 16:44:55;;;;;;;21.90;15.00;;;;;;;;;;5033716;28;20219;-87
2022/03/25 16:47:59;;;;;;;24.50;14.73;;;;;;;;;;5010613;28;20219;-88
2022/03/25 16:51:03;;;;;;;24.73;14.33;;;;;;;;;;5012223;28;20173;-87
2022/03/25 16:54:08;;;;;;;26.37;14.87;;;;;;;;;;5025386;28;20177;-87
2022/03/25 16:57:14;;;;;;;22.73;15.67;;;;;;;;;;5021382;28;20575;-87
2022/03/25 17:00:20;;;;;;;21.80;15.50;;;;;;;;;;5032957;28;20192;-87
2022/03/25 17:03:23;;;;;;;25.13;16.10;;;;;;;;;;5021696;28;20551;-87
2022/03/25 17:06:29;;;;;;;21.83;14.53;;;;;;;;;;5010895;28;20235;-87
2022/03/25 17:09:33;;;;;;;25.37;16.07;;;;;;;;;;5034374;28;20185;-87
2022/03/25 17:12:38;;;;;;;25.03;15.47;;;;;;;;;;5016851;28;20551;-86
2022/03/25 17:15:42;;;;;;;23.53;14.40;;;;;;;;;;5036267;28;20539;-87
2022/03/25 17:18:46;;;;;;;25.00;15.20;;;;;;;;;;5013270;28;20207;-87
2022/03/25 17:21:50;;;;;;;33.93;15.40;;;;;;;;;;5013558;28;20184;-87
2022/03/25 17:24:54;;;;;;;29.00;15.77;;;;;;;;;;5017787;28;20608;-87
2022/03/25 17:27:59;;;;;;;27.80;15.63;;;;;;;;;;5013170;28;20223;-87
2022/03/25 17:31:04;;;;;;;27.77;16.20;;;;;;;;;;5013412;28;20187;-86
2022/03/25 17:34:08;;;;;;;23.70;15.63;;;;;;;;;;5037166;28;20243;-87
2022/03/25 17:37:12;;;;;;;25.40;15.07;;;;;;;;;;5035884;28;20228;-86
2022/03/25 17:40:17;;;;;;;22.90;14.87;;;;;;;;;;5014895;28;20695;-87
2022/03/25 17:43:21;;;;;;;24.07;16.03;;;;;;;;;;5014470;28;20184;-87
2022/03/25 17:46:25;;;;;;;21.00;14.13;;;;;;;;;;5027798;28;20232;-87
2022/03/25 17:49:30;;;;;;;19.97;13.90;;;;;;;;;;5041779;28;20180;-87
2022/03/25 17:52:34;;;;;;;24.10;14.80;;;;;;;;;;5030466;28;20188;-86
2022/03/25 17:55:38;;;;;;;20.40;13.73;;;;;;;;;;5018987;28;20181;-86
2022/03/25 17:58:42;;;;;;;24.80;13.37;;;;;;;;;;5030474;28;20204;-86
2022/03/25 18:01:47;;;;;;;22.50;14.10;;;;;;;;;;5029469;28;20187;-86
2022/03/25 18:04:52;;;;;;;21.57;14.27;;;;;;;;;;5018612;28;20192;-86
2022/03/25 18:07:56;;;;;;;21.33;13.47;;;;;;;;;;5030029;28;20225;-87
2022/03/25 18:11:01;;;;;;;22.27;13.57;;;;;;;;;;5020166;28;20205;-86
2022/03/25 18:14:05;;;;;;;22.23;13.70;;;;;;;;;;5019681;28;20201;-87
2022/03/25 18:17:10;;;;;;;23.50;13.67;;;;;;;;;;5031183;28;20215;-86